Radley, United Kingdom
Current Conditions -  °F | °C
As of 12:50 PM on Thursday 23 Oct 2014 (Local Time) from EGUB Reporting Station
Broken Clouds Broken Clouds  
Wind Chill: 61°   Ceiling: 3800
Heat Index: 61°   Visibility: 6mi
Dew Point: 52°   Wind: 16mph
Humidity: 72%   Direction: 170°S
Pressure: 30.09"   Gusts: NA
Location:  51.69°N, 1.24°W
Report Text: EGUB 231150Z 17014KT 9999 SCT020 BKN038 16/11 Q1019 WHT BECMG BKN012 GRN
Loading
Personal Weather Stations






























Interactive Weather Map
Tropical Storm Tracking
New forecast layout! Learn more

10-Day Weather Forecast

Advertisements
Track Severe Weather on mobile